createdAt,value
2022-09-09T00:00:37.426Z,16.68
2022-09-09T00:04:05.138Z,16.63
2022-09-09T00:07:39.426Z,16.59
2022-09-09T00:11:07.695Z,16.57
2022-09-09T00:14:39.581Z,16.52
2022-09-09T00:18:10.305Z,16.49
2022-09-09T00:21:37.226Z,16.48
2022-09-09T00:25:11.297Z,16.48
2022-09-09T00:28:38.279Z,16.47
2022-09-09T00:32:06.822Z,16.49
2022-09-09T00:35:33.462Z,16.47
2022-09-09T00:39:00.473Z,16.49
2022-09-09T00:42:26.928Z,16.51
2022-09-09T00:46:12.932Z,16.53
2022-09-09T00:49:48.915Z,16.57
2022-09-09T00:53:30.960Z,16.58
2022-09-09T00:57:05.962Z,16.61
2022-09-09T01:00:30.160Z,16.60
2022-09-09T01:03:55.887Z,16.62
2022-09-09T01:07:19.916Z,16.62
2022-09-09T01:10:55.549Z,16.60
2022-09-09T01:14:32.948Z,16.63
2022-09-09T01:18:02.369Z,16.65
2022-09-09T01:21:34.979Z,16.68
2022-09-09T01:25:22.243Z,16.70
2022-09-09T01:28:54.677Z,16.71
2022-09-09T01:32:47.388Z,16.72
2022-09-09T01:36:15.706Z,16.72
2022-09-09T01:39:46.786Z,16.75
2022-09-09T01:43:11.677Z,16.73
2022-09-09T01:46:34.766Z,16.72
2022-09-09T01:49:57.385Z,16.73
2022-09-09T01:53:23.897Z,16.73
2022-09-09T01:57:03.976Z,16.69
2022-09-09T02:00:26.772Z,16.68
2022-09-09T02:03:58.266Z,16.64
2022-09-09T02:07:35.562Z,16.62
2022-09-09T02:11:03.833Z,16.59
2022-09-09T02:14:38.586Z,16.58
2022-09-09T02:18:03.145Z,16.55
2022-09-09T02:21:29.558Z,16.50
2022-09-09T02:24:54.723Z,16.47
2022-09-09T02:28:22.506Z,16.42
2022-09-09T02:31:46.366Z,16.41
2022-09-09T02:35:16.805Z,16.39
2022-09-09T02:38:57.286Z,16.37
2022-09-09T02:42:23.361Z,16.37
2022-09-09T02:46:01.754Z,16.35
2022-09-09T02:49:30.767Z,16.34
2022-09-09T02:53:04.249Z,16.34
2022-09-09T02:56:32.394Z,16.32
2022-09-09T02:59:54.544Z,16.31
2022-09-09T03:03:17.378Z,16.30
2022-09-09T03:06:39.498Z,16.27
2022-09-09T03:10:11.644Z,16.23
2022-09-09T03:13:34.733Z,16.23
2022-09-09T03:16:57.547Z,16.21
2022-09-09T03:20:19.958Z,16.18
2022-09-09T03:23:41.795Z,16.18
2022-09-09T03:27:03.559Z,16.17
2022-09-09T03:30:28.686Z,16.17
2022-09-09T03:33:51.899Z,16.15
2022-09-09T03:37:15.523Z,16.14
2022-09-09T03:40:37.349Z,16.11
2022-09-09T03:43:59.350Z,16.10
2022-09-09T03:47:24.333Z,16.06
2022-09-09T03:50:52.090Z,16.05
2022-09-09T03:54:13.738Z,16.05
2022-09-09T03:57:36.936Z,16.02
2022-09-09T04:01:02.451Z,16.01
2022-09-09T04:04:25.729Z,16.01
2022-09-09T04:07:47.523Z,15.98
2022-09-09T04:11:09.818Z,15.96
2022-09-09T04:14:33.241Z,15.92
2022-09-09T04:17:55.142Z,15.88
2022-09-09T04:21:18.572Z,15.86
2022-09-09T04:24:42.070Z,15.83
2022-09-09T04:28:06.323Z,15.83
2022-09-09T04:31:28.615Z,15.79
2022-09-09T04:34:51.986Z,15.74
2022-09-09T04:38:15.437Z,15.70
2022-09-09T04:41:38.748Z,15.69
2022-09-09T04:45:01.221Z,15.68
2022-09-09T04:48:23.475Z,15.67
2022-09-09T04:51:45.292Z,15.63
2022-09-09T04:55:10.646Z,15.61
2022-09-09T04:58:33.171Z,15.60
2022-09-09T05:01:56.236Z,15.57
2022-09-09T05:05:19.559Z,15.54
2022-09-09T05:08:44.580Z,15.54
2022-09-09T05:12:08.030Z,15.52
2022-09-09T05:15:31.791Z,15.48
2022-09-09T05:18:53.300Z,15.45
2022-09-09T05:22:21.195Z,15.39
2022-09-09T05:25:43.625Z,15.37
2022-09-09T05:29:07.153Z,15.36
2022-09-09T05:32:28.976Z,15.32
2022-09-09T05:35:58.049Z,15.30
2022-09-09T05:39:19.795Z,15.29
2022-09-09T05:42:41.669Z,15.28
2022-09-09T05:46:07.234Z,15.33
2022-09-09T05:49:29.106Z,15.34
2022-09-09T05:52:50.955Z,15.36
2022-09-09T05:56:15.225Z,15.43
2022-09-09T05:59:38.310Z,15.44
2022-09-09T06:03:02.117Z,15.49
2022-09-09T06:06:25.240Z,15.52
2022-09-09T06:09:47.045Z,15.58
2022-09-09T06:13:08.810Z,15.60
2022-09-09T06:16:33.579Z,15.64
2022-09-09T06:19:57.117Z,15.69
2022-09-09T06:23:19.907Z,15.74
2022-09-09T06:26:42.659Z,15.81
2022-09-09T06:30:08.615Z,15.86
2022-09-09T06:33:35.817Z,15.91
2022-09-09T06:36:59.788Z,15.95
2022-09-09T06:40:27.902Z,16.02
2022-09-09T06:43:50.096Z,16.06
2022-09-09T06:47:12.487Z,16.08
2022-09-09T06:50:35.765Z,16.11
2022-09-09T06:54:00.493Z,16.11
2022-09-09T06:57:38.561Z,16.13
2022-09-09T07:01:06.884Z,16.17
2022-09-09T07:04:29.494Z,16.22
2022-09-09T07:07:52.934Z,16.27
2022-09-09T07:11:17.326Z,16.33
2022-09-09T07:14:39.290Z,16.41
2022-09-09T07:18:04.352Z,16.50
2022-09-09T07:21:28.335Z,16.59
2022-09-09T07:24:49.987Z,16.69
2022-09-09T07:28:13.194Z,16.79
2022-09-09T07:31:37.521Z,16.90
2022-09-09T07:35:03.055Z,16.99
2022-09-09T07:38:25.078Z,17.06
2022-09-09T07:41:50.076Z,17.14
2022-09-09T07:45:16.407Z,17.24
2022-09-09T07:48:38.561Z,17.33
2022-09-09T07:52:00.960Z,17.38
2022-09-09T07:55:26.407Z,17.43
2022-09-09T07:58:49.355Z,17.49
2022-09-09T08:02:13.046Z,17.54
2022-09-09T08:05:35.120Z,17.62
2022-09-09T08:08:57.368Z,17.70
2022-09-09T08:12:19.753Z,17.76
2022-09-09T08:15:42.104Z,17.82
2022-09-09T08:19:06.571Z,17.87
2022-09-09T08:22:28.874Z,17.94
2022-09-09T08:25:51.102Z,18.00
2022-09-09T08:29:14.871Z,18.08
2022-09-09T08:32:36.719Z,18.16
2022-09-09T08:35:59.998Z,18.25
2022-09-09T08:39:23.829Z,18.34
2022-09-09T08:42:50.804Z,18.42
2022-09-09T08:46:22.538Z,18.50
2022-09-09T08:50:05.034Z,18.56
2022-09-09T08:53:32.299Z,18.63
2022-09-09T08:56:54.906Z,18.66
2022-09-09T09:00:16.953Z,18.72
2022-09-09T09:03:47.366Z,18.76
2022-09-09T09:07:22.133Z,18.83
2022-09-09T09:10:50.072Z,18.87
2022-09-09T09:14:24.277Z,18.92
2022-09-09T09:17:47.598Z,18.99
2022-09-09T09:21:15.590Z,19.04
2022-09-09T09:24:47.893Z,19.11
2022-09-09T09:28:19.217Z,19.15
2022-09-09T09:31:48.941Z,19.21
2022-09-09T09:35:14.580Z,19.24
2022-09-09T09:42:23.850Z,19.37
2022-09-09T09:46:13.885Z,19.42
2022-09-09T09:49:31.450Z,19.48
2022-09-09T09:52:58.408Z,19.56
2022-09-09T09:56:29.632Z,19.57
2022-09-09T10:00:02.357Z,19.60
2022-09-09T10:03:30.217Z,19.70
2022-09-09T10:06:54.034Z,19.80
2022-09-09T10:10:21.576Z,19.87
2022-09-09T10:13:51.452Z,19.99
2022-09-09T10:17:28.180Z,20.10
2022-09-09T10:21:01.368Z,20.20
2022-09-09T10:24:47.013Z,20.29
2022-09-09T10:28:35.316Z,20.36
2022-09-09T10:32:08.314Z,20.44
2022-09-09T10:35:34.414Z,20.47
2022-09-09T10:39:01.932Z,20.53
2022-09-09T10:42:33.118Z,20.58
2022-09-09T10:46:04.815Z,20.63
2022-09-09T10:49:41.594Z,20.68
2022-09-09T10:53:15.239Z,20.78
2022-09-09T10:56:40.766Z,20.87
2022-09-09T11:00:06.988Z,20.89
2022-09-09T11:03:32.060Z,20.97
2022-09-09T11:06:57.103Z,21.06
2022-09-09T11:10:26.330Z,21.15
2022-09-09T11:13:56.911Z,21.19
2022-09-09T11:17:22.861Z,21.27
2022-09-09T11:20:46.833Z,21.33
2022-09-09T11:24:16.457Z,21.40
2022-09-09T11:27:46.883Z,21.44
2022-09-09T11:31:29.793Z,21.48
2022-09-09T11:34:58.709Z,21.53
2022-09-09T11:38:28.831Z,21.57
2022-09-09T11:41:50.866Z,21.63
2022-09-09T11:45:22.166Z,21.68
2022-09-09T11:48:46.733Z,21.74
2022-09-09T11:52:22.873Z,21.79
2022-09-09T11:55:45.068Z,21.86
2022-09-09T11:59:09.051Z,21.91
2022-09-09T12:02:32.174Z,21.96
2022-09-09T12:05:57.058Z,21.98
2022-09-09T12:09:27.958Z,22.06
2022-09-09T12:12:49.708Z,22.12
2022-09-09T12:16:34.284Z,22.21
2022-09-09T12:20:08.220Z,22.26
2022-09-09T12:23:40.258Z,22.26
2022-09-09T12:27:09.381Z,22.28
2022-09-09T12:30:36.576Z,22.33
2022-09-09T12:34:12.011Z,22.36
2022-09-09T12:37:37.507Z,22.43
2022-09-09T12:41:01.594Z,22.50
2022-09-09T12:44:23.807Z,22.54
2022-09-09T12:47:49.313Z,22.59
2022-09-09T12:51:21.296Z,22.62
2022-09-09T12:54:48.138Z,22.69
2022-09-09T12:58:17.974Z,22.72
2022-09-09T13:01:39.461Z,22.78
2022-09-09T13:05:10.063Z,22.82
2022-09-09T13:08:32.218Z,22.84
2022-09-09T13:11:59.202Z,22.84
2022-09-09T13:15:27.566Z,22.86
2022-09-09T13:18:50.375Z,22.90
2022-09-09T13:22:17.265Z,22.92
2022-09-09T13:25:43.644Z,22.90
2022-09-09T13:29:22.294Z,22.94
2022-09-09T13:32:45.207Z,22.93
2022-09-09T13:36:09.138Z,22.94
2022-09-09T13:39:31.245Z,22.96
2022-09-09T13:42:57.295Z,22.99
2022-09-09T13:46:31.232Z,23.02
2022-09-09T13:49:54.275Z,23.06
2022-09-09T13:53:16.179Z,23.03
2022-09-09T13:56:38.741Z,23.02
2022-09-09T14:00:07.456Z,23.01
2022-09-09T14:03:29.121Z,23.01
2022-09-09T14:06:52.695Z,23.03
2022-09-09T14:10:14.748Z,23.08
2022-09-09T14:13:38.455Z,23.11
2022-09-09T14:17:00.377Z,23.15
2022-09-09T14:20:22.609Z,23.19
2022-09-09T14:23:45.665Z,23.23
2022-09-09T14:27:07.420Z,23.23
2022-09-09T14:30:29.184Z,23.25
2022-09-09T14:33:51.760Z,23.29
2022-09-09T14:37:13.361Z,23.34
2022-09-09T14:40:36.524Z,23.41
2022-09-09T14:43:58.583Z,23.48
2022-09-09T14:47:20.200Z,23.55
2022-09-09T14:50:42.381Z,23.62
2022-09-09T14:54:04.506Z,23.67
2022-09-09T14:57:27.789Z,23.72
2022-09-09T15:00:49.635Z,23.84
2022-09-09T15:04:15.639Z,23.91
2022-09-09T15:07:38.122Z,23.99
2022-09-09T15:11:02.060Z,24.16
2022-09-09T15:14:27.063Z,24.66
2022-09-09T15:17:48.783Z,25.13
2022-09-09T15:21:11.318Z,25.15
2022-09-09T15:24:33.420Z,25.06
2022-09-09T15:27:56.886Z,24.93
2022-09-09T15:31:22.506Z,24.75
2022-09-09T15:34:44.334Z,24.73
2022-09-09T15:38:06.758Z,24.67
2022-09-09T15:41:29.037Z,24.56
2022-09-09T15:44:50.920Z,24.47
2022-09-09T15:48:14.152Z,24.32
2022-09-09T15:51:42.795Z,24.17
2022-09-09T15:55:06.027Z,24.02
2022-09-09T15:58:27.599Z,23.89
2022-09-09T16:01:52.194Z,23.75
2022-09-09T16:05:15.574Z,23.60
2022-09-09T16:08:38.692Z,23.48
2022-09-09T16:12:01.837Z,23.40
2022-09-09T16:15:24.176Z,23.32
2022-09-09T16:18:47.484Z,23.21
2022-09-09T16:22:10.458Z,23.10
2022-09-09T16:25:32.384Z,22.97
2022-09-09T16:28:55.150Z,22.86
2022-09-09T16:32:17.430Z,22.76
2022-09-09T16:35:39.790Z,22.64
2022-09-09T16:39:05.069Z,22.57
2022-09-09T16:42:26.858Z,22.54
2022-09-09T16:45:48.879Z,22.54
2022-09-09T16:49:13.066Z,22.52
2022-09-09T16:52:34.667Z,22.51
2022-09-09T16:55:57.814Z,22.46
2022-09-09T16:59:21.003Z,22.41
2022-09-09T17:02:43.109Z,22.35
2022-09-09T17:06:05.441Z,22.29
2022-09-09T17:09:30.102Z,22.21
2022-09-09T17:12:53.819Z,22.12
2022-09-09T17:16:18.082Z,22.02
2022-09-09T17:19:39.671Z,21.94
2022-09-09T17:23:01.410Z,21.83
2022-09-09T17:26:24.898Z,21.73
2022-09-09T17:29:48.070Z,21.62
2022-09-09T17:33:10.863Z,21.51
2022-09-09T17:36:34.717Z,21.39
2022-09-09T17:39:56.863Z,21.28
2022-09-09T17:43:18.665Z,21.16
2022-09-09T17:46:43.652Z,21.03
2022-09-09T17:50:07.575Z,20.94
2022-09-09T17:53:29.630Z,20.83
2022-09-09T17:56:51.793Z,20.73
2022-09-09T18:00:14.203Z,20.63
2022-09-09T18:03:38.203Z,20.54
2022-09-09T18:07:00.318Z,20.44
2022-09-09T18:10:22.502Z,20.38
2022-09-09T18:13:44.488Z,20.32
2022-09-09T18:17:06.770Z,20.25
2022-09-09T18:20:30.370Z,20.16
2022-09-09T18:23:52.775Z,20.08
2022-09-09T18:27:14.700Z,19.99
2022-09-09T18:30:41.150Z,19.92
2022-09-09T18:34:05.482Z,19.88
2022-09-09T18:37:28.569Z,19.86
2022-09-09T18:40:50.926Z,19.85
2022-09-09T18:44:16.162Z,19.84
2022-09-09T18:47:38.058Z,19.83
2022-09-09T18:51:03.810Z,19.78
2022-09-09T18:54:30.381Z,19.76
2022-09-09T18:57:51.930Z,19.75
2022-09-09T19:01:16.676Z,19.71
2022-09-09T19:04:38.669Z,19.68
2022-09-09T19:08:00.481Z,19.62
2022-09-09T19:11:25.274Z,19.55
2022-09-09T19:14:46.988Z,19.46
2022-09-09T19:18:09.306Z,19.36
2022-09-09T19:21:32.847Z,19.29
2022-09-09T19:24:55.712Z,19.21
2022-09-09T19:28:18.662Z,19.14
2022-09-09T19:31:41.552Z,19.10
2022-09-09T19:35:08.298Z,19.05
2022-09-09T19:38:30.534Z,19.03
2022-09-09T19:41:52.233Z,19.00
2022-09-09T19:45:15.539Z,18.98
2022-09-09T19:48:39.540Z,18.94
2022-09-09T19:52:01.146Z,18.89
2022-09-09T19:55:28.659Z,18.86
2022-09-09T19:58:50.862Z,18.82
2022-09-09T20:02:15.592Z,18.77
2022-09-09T20:05:37.543Z,18.73
2022-09-09T20:08:59.451Z,18.70
2022-09-09T20:12:21.475Z,18.64
2022-09-09T20:15:42.981Z,18.58
2022-09-09T20:19:08.460Z,18.51
2022-09-09T20:22:30.658Z,18.43
2022-09-09T20:25:52.335Z,18.35
2022-09-09T20:29:16.727Z,18.29
2022-09-09T20:32:38.378Z,18.22
2022-09-09T20:36:05.163Z,18.14
2022-09-09T20:39:27.848Z,18.07
2022-09-09T20:42:49.510Z,17.97
2022-09-09T20:46:10.941Z,17.90
2022-09-09T20:49:35.119Z,17.79
2022-09-09T20:52:58.242Z,17.70
2022-09-09T20:56:20.371Z,17.62
2022-09-09T20:59:43.358Z,17.52
2022-09-09T21:03:05.647Z,17.43
2022-09-09T21:06:27.742Z,17.34
2022-09-09T21:09:50.540Z,17.27
2022-09-09T21:13:11.903Z,17.16
2022-09-09T21:16:33.210Z,17.09
2022-09-09T21:19:57.284Z,17.01
2022-09-09T21:23:19.382Z,16.96
2022-09-09T21:26:43.955Z,16.91
2022-09-09T21:30:06.038Z,16.88
2022-09-09T21:33:29.214Z,16.86
2022-09-09T21:36:51.366Z,16.89
2022-09-09T21:40:13.441Z,16.90
2022-09-09T21:43:36.753Z,16.88
2022-09-09T21:46:58.110Z,16.92
2022-09-09T21:50:24.498Z,16.95
2022-09-09T21:53:49.830Z,16.97
2022-09-09T21:57:14.227Z,16.98
2022-09-09T22:00:37.806Z,16.99
2022-09-09T22:03:59.788Z,17.02
2022-09-09T22:07:21.651Z,17.04
2022-09-09T22:10:45.940Z,17.05
2022-09-09T22:14:08.010Z,17.06
2022-09-09T22:17:31.806Z,17.09
2022-09-09T22:20:53.664Z,17.09
2022-09-09T22:24:15.778Z,17.09
2022-09-09T22:27:37.363Z,17.09
2022-09-09T22:30:58.802Z,17.08
2022-09-09T22:34:21.953Z,17.05
2022-09-09T22:37:43.531Z,17.05
2022-09-09T22:41:05.943Z,17.04
2022-09-09T22:44:28.531Z,17.01
2022-09-09T22:47:51.356Z,16.99
2022-09-09T22:51:16.082Z,16.98
2022-09-09T22:54:38.089Z,16.98
2022-09-09T22:57:59.654Z,16.98
2022-09-09T23:01:21.890Z,16.97
2022-09-09T23:04:45.589Z,16.96
2022-09-09T23:08:08.728Z,16.95
2022-09-09T23:11:32.281Z,16.95
2022-09-09T23:14:55.245Z,16.92
2022-09-09T23:18:17.486Z,16.92
2022-09-09T23:21:40.520Z,16.92
2022-09-09T23:25:05.867Z,16.92
2022-09-09T23:28:27.918Z,16.92
2022-09-09T23:31:49.606Z,16.91
2022-09-09T23:35:11.426Z,16.91
2022-09-09T23:38:33.142Z,16.92
2022-09-09T23:41:55.893Z,16.90
2022-09-09T23:45:17.990Z,16.90
2022-09-09T23:48:40.617Z,16.89
2022-09-09T23:52:04.333Z,16.90
2022-09-09T23:55:26.238Z,16.87
2022-09-09T23:58:50.113Z,16.81
